King Philippos — 9HA3023 — position and weather

sailwx.info

Track history (hours):
 
Tides and Currents Weather Stations Pressure Air Temp Water Temp Dewpoint Dewpoint Depression Visibility Wind Speed Wind Dir Waves Ship Positions

King Philippos

Last reported at 2015-Mar-13 06:13 UTC. Time now 2015-Mar-29 22:27 UTC.
Position N 36°32' E 013°51'.
Warning: this ship's position is 16 days out of date.

Length 250 m; draft 12.8 m.

Type: Tanker. MMSI: 229046000.

Date/timePositionNaut miles runAvg speedWind from/ knotsBaromVisibWave heightAir tempDewpointWater temp
2015-Mar-13 06:13N 36°32' E 013°51'50611.8
2015-Mar-11 11:27N 37°13' E 003°20'1112.9
2015-Mar-11 10:33N 37°12' E 003°06'1212.5
2015-Mar-11 09:33N 37°09' E 002°51'1212.1
2015-Mar-11 08:33N 37°06' E 002°36'1312.6
2015-Mar-11 07:33N 37°04' E 002°20'1712.5
2015-Mar-11 06:12N 37°00' E 001°60'812.2
2015-Mar-11 05:33N 36°59' E 001°50'1211.8
2015-Mar-11 04:33N 36°56' E 001°36'1211.7
2015-Mar-11 03:33N 36°54' E 001°21'1212.2
2015-Mar-11 02:33N 36°51' E 001°06'1212.2
2015-Mar-11 01:33N 36°49' E 000°51'1212.5
2015-Mar-11 00:33N 36°46' E 000°36'1212.3
2015-Mar-10 23:34N 36°44' E 000°21'1212.1
2015-Mar-10 22:33N 36°41' E 000°06'1212.4
2015-Mar-10 21:33N 36°39' W 000°09'1312.8
2015-Mar-10 20:33N 36°36' W 000°24'1212.0
2015-Mar-10 19:33N 36°34' W 000°39'1211.9
2015-Mar-10 18:32N 36°31' W 000°54'2411.9
2015-Mar-10 16:33N 36°26' W 001°22'2612.1
2015-Mar-10 14:23N 36°21' W 001°55'16113.4
2015-Mar-10 02:22N 36°00' W 005°12'1113.9
2015-Mar-10 01:33N 35°57' W 005°26'10911.9
2015-Mar-09 16:27N 36°11' W 007°39'1212.3
2015-Mar-09 15:30N 36°13' W 007°53'3511.8
2015-Mar-09 12:33N 36°21' W 008°35'1212.3
2015-Mar-09 11:33N 36°24' W 008°50'1312.5
2015-Mar-09 10:33N 36°27' W 009°05'1212.4
2015-Mar-09 09:33N 36°30' W 009°20'1312.6
2015-Mar-09 08:33N 36°39' W 009°31'1211.9
2015-Mar-09 07:33N 36°49' W 009°39'1212.5
2015-Mar-09 06:33N 37°01' W 009°43'1212.3
2015-Mar-09 05:33N 37°13' W 009°46'1312.5
2015-Mar-09 04:33N 37°26' W 009°50'1212.3
2015-Mar-09 03:33N 37°38' W 009°53'1212.3
2015-Mar-09 02:33N 37°50' W 009°57'1212.3
2015-Mar-09 01:33N 38°02' W 010°00'1212.5
2015-Mar-09 00:33N 38°14' W 010°04'1312.8
2015-Mar-08 23:33N 38°26' W 010°07'1312.5
2015-Mar-08 22:33N 38°38' W 010°11'1212.0
2015-Mar-08 21:33N 38°50' W 010°12'1312.5
2015-Mar-08 20:33N 39°03' W 010°12'1312.5
2015-Mar-08 19:33N 39°16' W 010°12'1312.3
2015-Mar-08 18:31N 39°28' W 010°12'1512.3
2015-Mar-08 17:17N 39°43' W 010°12'2112.3
2015-Mar-08 15:33N 40°05' W 010°12'1712.4
2015-Mar-08 14:12N 40°21' W 010°12'1312.3
2015-Mar-08 13:08N 40°35' W 010°12'3712.7
2015-Mar-08 10:12N 41°12' W 010°12'812.9
2015-Mar-08 09:33N 41°20' W 010°12'16512.5
2015-Mar-07 20:20N 44°03' W 009°38'3712.9
2015-Mar-07 17:28N 44°35' W 009°14'1112.3
2015-Mar-07 16:32N 44°45' W 009°06'1212.3
2015-Mar-07 15:31N 44°56' W 008°58'21112.3
2015-Mar-06 22:23N 48°02' W 006°31'26411.5
2015-Mar-05 23:33N 50°22' W 000°49'1111.3
2015-Mar-05 22:33N 50°25' W 000°32'1110.4
2015-Mar-05 21:33N 50°28' W 000°16'2210.3
2015-Mar-05 19:27N 50°33' E 000°17'1011.2
2015-Mar-05 18:33N 50°36' E 000°32'1212.4
2015-Mar-05 17:33N 50°43' E 000°48'1312.8
2015-Mar-05 16:32N 50°52' E 001°03'1212.3
2015-Mar-05 15:34N 50°60' E 001°18'1010.5
2015-Mar-05 14:34N 51°06' E 001°31'9 9.0
2015-Mar-05 13:33N 51°11' E 001°43'9 9.1
2015-Mar-05 12:33N 51°19' E 001°51'1010.0
2015-Mar-05 11:33N 51°27' E 001°60'1211.3
2015-Mar-05 10:32N 51°35' E 002°13'2812.7
2015-Mar-05 08:18N 51°59' E 002°38'  
Track history (hours):
 
Tides and Currents Weather Stations Pressure Air Temp Water Temp Dewpoint Dewpoint Depression Visibility Wind Speed Wind Dir Waves Ship Positions

King Philippos

Last reported at 2015-Mar-13 06:13 UTC. Time now 2015-Mar-29 22:27 UTC.
Position N 36°32' E 013°51'.
Warning: this ship's position is 16 days out of date.

Length 250 m; draft 12.8 m.

Type: Tanker. MMSI: 229046000.

Date/timePositionNaut miles runAvg speedWind from/ knotsBaromVisibWave heightAir tempDewpointWater temp
2015-Mar-13 06:13N 36°32' E 013°51'50611.8
2015-Mar-11 11:27N 37°13' E 003°20'1112.9
2015-Mar-11 10:33N 37°12' E 003°06'1212.5
2015-Mar-11 09:33N 37°09' E 002°51'1212.1
2015-Mar-11 08:33N 37°06' E 002°36'1312.6
2015-Mar-11 07:33N 37°04' E 002°20'1712.5
2015-Mar-11 06:12N 37°00' E 001°60'812.2
2015-Mar-11 05:33N 36°59' E 001°50'1211.8
2015-Mar-11 04:33N 36°56' E 001°36'1211.7
2015-Mar-11 03:33N 36°54' E 001°21'1212.2
2015-Mar-11 02:33N 36°51' E 001°06'1212.2
2015-Mar-11 01:33N 36°49' E 000°51'1212.5
2015-Mar-11 00:33N 36°46' E 000°36'1212.3
2015-Mar-10 23:34N 36°44' E 000°21'1212.1
2015-Mar-10 22:33N 36°41' E 000°06'1212.4
2015-Mar-10 21:33N 36°39' W 000°09'1312.8
2015-Mar-10 20:33N 36°36' W 000°24'1212.0
2015-Mar-10 19:33N 36°34' W 000°39'1211.9
2015-Mar-10 18:32N 36°31' W 000°54'2411.9
2015-Mar-10 16:33N 36°26' W 001°22'2612.1
2015-Mar-10 14:23N 36°21' W 001°55'16113.4
2015-Mar-10 02:22N 36°00' W 005°12'1113.9
2015-Mar-10 01:33N 35°57' W 005°26'10911.9
2015-Mar-09 16:27N 36°11' W 007°39'1212.3
2015-Mar-09 15:30N 36°13' W 007°53'3511.8
2015-Mar-09 12:33N 36°21' W 008°35'1212.3
2015-Mar-09 11:33N 36°24' W 008°50'1312.5
2015-Mar-09 10:33N 36°27' W 009°05'1212.4
2015-Mar-09 09:33N 36°30' W 009°20'1312.6
2015-Mar-09 08:33N 36°39' W 009°31'1211.9
2015-Mar-09 07:33N 36°49' W 009°39'1212.5
2015-Mar-09 06:33N 37°01' W 009°43'1212.3
2015-Mar-09 05:33N 37°13' W 009°46'1312.5
2015-Mar-09 04:33N 37°26' W 009°50'1212.3
2015-Mar-09 03:33N 37°38' W 009°53'1212.3
2015-Mar-09 02:33N 37°50' W 009°57'1212.3
2015-Mar-09 01:33N 38°02' W 010°00'1212.5
2015-Mar-09 00:33N 38°14' W 010°04'1312.8
2015-Mar-08 23:33N 38°26' W 010°07'1312.5
2015-Mar-08 22:33N 38°38' W 010°11'1212.0
2015-Mar-08 21:33N 38°50' W 010°12'1312.5
2015-Mar-08 20:33N 39°03' W 010°12'1312.5
2015-Mar-08 19:33N 39°16' W 010°12'1312.3
2015-Mar-08 18:31N 39°28' W 010°12'1512.3
2015-Mar-08 17:17N 39°43' W 010°12'2112.3
2015-Mar-08 15:33N 40°05' W 010°12'1712.4
2015-Mar-08 14:12N 40°21' W 010°12'1312.3
2015-Mar-08 13:08N 40°35' W 010°12'3712.7
2015-Mar-08 10:12N 41°12' W 010°12'812.9
2015-Mar-08 09:33N 41°20' W 010°12'16512.5
2015-Mar-07 20:20N 44°03' W 009°38'3712.9
2015-Mar-07 17:28N 44°35' W 009°14'1112.3
2015-Mar-07 16:32N 44°45' W 009°06'1212.3
2015-Mar-07 15:31N 44°56' W 008°58'21112.3
2015-Mar-06 22:23N 48°02' W 006°31'26411.5
2015-Mar-05 23:33N 50°22' W 000°49'1111.3
2015-Mar-05 22:33N 50°25' W 000°32'1110.4
2015-Mar-05 21:33N 50°28' W 000°16'2210.3
2015-Mar-05 19:27N 50°33' E 000°17'1011.2
2015-Mar-05 18:33N 50°36' E 000°32'1212.4
2015-Mar-05 17:33N 50°43' E 000°48'1312.8
2015-Mar-05 16:32N 50°52' E 001°03'1212.3
2015-Mar-05 15:34N 50°60' E 001°18'1010.5
2015-Mar-05 14:34N 51°06' E 001°31'9 9.0
2015-Mar-05 13:33N 51°11' E 001°43'9 9.1
2015-Mar-05 12:33N 51°19' E 001°51'1010.0
2015-Mar-05 11:33N 51°27' E 001°60'1211.3
2015-Mar-05 10:32N 51°35' E 002°13'2812.7
2015-Mar-05 08:18N 51°59' E 002°38'  

Dump ship's entire track history